Time;durP1;ratioP1;P1;durP2;ratioP2;P2;SDS_P1;SDS_P2;PMS_P1;PMS_P2;Temp;Humidity;BMP_temperature;BMP_pressure;BME280_temperature;BME280_humidity;BME280_pressure;Samples;Min_cycle;Max_cycle;Signal;HPM_P1;HPM_P2
2022/05/11 00:00:23;;;;;;;;;;;;;;;19.26;61.51;99852.13;1088476;54;19939;-81
2022/05/11 00:01:25;;;;;;;;;;;;;;;19.21;61.41;99854.63;1088497;54;19927;-82
2022/05/11 00:02:32;;;;;;;;;;;;;;;19.23;61.38;99850.66;1088542;54;19938;-81
2022/05/11 00:03:33;;;;;;;;;;;;;;;19.16;61.48;99847.97;1088551;54;20617;-81
2022/05/11 00:04:38;;;;;;;;;;;;;;;19.17;61.50;99854.19;1088568;54;19926;-79
2022/05/11 00:05:39;;;;;;;;;;;;;;;19.18;61.54;99853.16;1088512;54;19943;-79
2022/05/11 00:06:43;;;;;;;;;;;;;;;19.17;61.67;99852.34;1088530;54;19942;-81
2022/05/11 00:07:44;;;;;;;;;;;;;;;19.15;61.91;99856.28;1088586;54;19927;-81
2022/05/11 00:08:48;;;;;;;;;;;;;;;19.11;61.64;99853.16;1088586;54;19950;-80
2022/05/11 00:09:49;;;;;;;;;;;;;;;19.08;62.02;99855.44;1088529;54;19943;-81
2022/05/11 00:10:53;;;;;;;;;;;;;;;19.03;62.48;99850.63;1088542;54;19935;-82
2022/05/11 00:11:54;;;;;;;;;;;;;;;19.02;62.48;99840.84;1088563;54;19927;-80
2022/05/11 00:12:58;;;;;;;;;;;;;;;19.02;62.29;99848.97;1088591;54;19962;-80
2022/05/11 00:14:00;;;;;;;;;;;;;;;18.99;62.33;99854.78;1090028;46;19942;-81
2022/05/11 00:15:03;;;;;;;;;;;;;;;18.92;62.53;99851.19;1088148;54;19946;-81
2022/05/11 00:16:07;;;;;;;;;;;;;;;18.95;62.45;99850.81;1088582;46;19930;-81
2022/05/11 00:17:08;;;;;;;;;;;;;;;18.92;62.97;99846.63;1088589;54;19927;-80
2022/05/11 00:18:15;;;;;;;;;;;;;;;18.92;62.87;99852.03;1088600;54;19954;-82
2022/05/11 00:19:19;;;;;;;;;;;;;;;18.86;63.02;99853.69;1088531;54;19931;-80
2022/05/11 00:20:23;;;;;;;;;;;;;;;18.85;62.69;99849.31;1088442;54;19927;-80
2022/05/11 00:21:24;;;;;;;;;;;;;;;18.84;62.99;99849.53;1088520;54;19943;-81
2022/05/11 00:22:27;;;;;;;;;;;;;;;18.77;62.97;99854.06;1088784;46;19942;-82
2022/05/11 00:23:31;;;;;;;;;;;;;;;18.71;63.03;99850.28;1088955;46;19934;-81
2022/05/11 00:24:32;;;;;;;;;;;;;;;18.68;63.03;99856.97;1089537;46;19982;-81
2022/05/11 00:25:37;;;;;;;;;;;;;;;18.68;63.31;99848.84;1088448;54;19995;-81
2022/05/11 00:26:39;;;;;;;;;;;;;;;18.66;63.15;99850.09;1088531;54;19927;-82
2022/05/11 00:27:42;;;;;;;;;;;;;;;18.65;63.43;99851.13;1091505;46;19998;-81
2022/05/11 00:28:44;;;;;;;;;;;;;;;18.63;63.18;99842.34;1091344;46;19963;-82
2022/05/11 00:29:48;;;;;;;;;;;;;;;18.63;63.16;99847.78;1088348;54;19927;-83
2022/05/11 00:30:53;;;;;;;;;;;;;;;18.61;63.62;99844.47;1088366;54;19939;-81
2022/05/11 00:31:56;;;;;;;;;;;;;;;18.59;63.64;99841.09;1090628;39;20901;-81
2022/05/11 00:33:02;;;;;;;;;;;;;;;18.60;63.60;99854.44;1088489;54;19927;-80
2022/05/11 00:34:12;;;;;;;;;;;;;;;18.61;63.38;99844.47;1088348;54;19942;-80
2022/05/11 00:35:16;;;;;;;;;;;;;;;18.57;63.72;99849.41;1088403;54;19950;-81
2022/05/11 00:36:21;;;;;;;;;;;;;;;18.54;63.66;99850.66;1088471;54;19927;-80
2022/05/11 00:37:24;;;;;;;;;;;;;;;18.57;63.72;99844.00;1088478;54;20007;-80
2022/05/11 00:38:29;;;;;;;;;;;;;;;18.55;63.49;99857.75;1088382;54;19934;-81
2022/05/11 00:39:34;;;;;;;;;;;;;;;18.51;63.74;99840.25;1088466;54;19938;-80
2022/05/11 00:40:43;;;;;;;;;;;;;;;18.48;63.76;99850.63;1088431;54;19934;-77
2022/05/11 00:41:44;;;;;;;;;;;;;;;18.48;63.82;99850.63;1088871;39;20451;-80
2022/05/11 00:42:49;;;;;;;;;;;;;;;18.47;64.13;99855.22;1088469;54;20002;-81
2022/05/11 00:43:54;;;;;;;;;;;;;;;18.43;63.90;99853.94;1088383;54;19973;-79
2022/05/11 00:44:59;;;;;;;;;;;;;;;18.45;64.18;99851.88;1088362;54;19933;-81
2022/05/11 00:46:05;;;;;;;;;;;;;;;18.42;64.32;99846.03;1088334;54;20862;-82
2022/05/11 00:47:12;;;;;;;;;;;;;;;18.44;64.34;99852.09;1088375;54;19942;-80
2022/05/11 00:49:43;;;;;;;;;;;;;;;18.37;64.47;99850.16;1088413;54;19939;-81
2022/05/11 00:50:44;;;;;;;;;;;;;;;18.30;64.88;99845.78;1088427;54;19939;-82
2022/05/11 00:51:50;;;;;;;;;;;;;;;18.31;64.79;99848.25;1090190;46;19943;-81
2022/05/11 00:52:57;;;;;;;;;;;;;;;18.28;64.81;99847.84;1088473;54;19942;-80
2022/05/11 00:53:58;;;;;;;;;;;;;;;18.28;65.04;99848.66;1088460;54;20818;-82
2022/05/11 00:55:03;;;;;;;;;;;;;;;18.26;64.88;99836.38;1088336;54;19943;-80
2022/05/11 00:56:05;;;;;;;;;;;;;;;18.29;64.95;99841.38;1088391;54;19943;-81
2022/05/11 00:57:11;;;;;;;;;;;;;;;18.24;64.80;99844.69;1088396;54;19926;-81
2022/05/11 00:58:14;;;;;;;;;;;;;;;18.19;65.25;99836.34;1088361;54;19949;-81
2022/05/11 00:59:20;;;;;;;;;;;;;;;18.19;65.18;99837.19;1091353;39;20454;-80
2022/05/11 01:00:22;;;;;;;;;;;;;;;18.24;65.14;99834.69;1093377;39;20589;-81
2022/05/11 01:01:26;;;;;;;;;;;;;;;18.27;64.75;99838.03;1088384;54;19943;-80
2022/05/11 01:02:27;;;;;;;;;;;;;;;18.16;65.24;99836.75;1088361;54;19943;-80
2022/05/11 01:03:34;;;;;;;;;;;;;;;18.19;65.15;99834.47;1088450;54;19943;-79
2022/05/11 01:04:42;;;;;;;;;;;;;;;18.20;64.96;99835.28;1088304;46;19943;-80
2022/05/11 01:05:44;;;;;;;;;;;;;;;18.24;65.05;99836.59;1088246;54;19942;-80
2022/05/11 01:06:48;;;;;;;;;;;;;;;18.27;64.73;99838.91;1088399;54;19949;-79
2022/05/11 01:07:50;;;;;;;;;;;;;;;18.30;64.51;99834.94;1088369;54;19942;-81
2022/05/11 01:08:53;;;;;;;;;;;;;;;18.34;64.43;99828.94;1088433;54;19949;-81
2022/05/11 01:09:54;;;;;;;;;;;;;;;18.38;64.26;99823.94;1088358;54;20004;-80
2022/05/11 01:10:58;;;;;;;;;;;;;;;18.41;64.06;99828.97;1088424;54;19949;-82
2022/05/11 01:12:00;;;;;;;;;;;;;;;18.45;63.99;99827.50;1088424;54;19946;-79
2022/05/11 01:13:07;;;;;;;;;;;;;;;18.47;63.80;99828.16;1088391;54;19942;-82
2022/05/11 01:14:09;;;;;;;;;;;;;;;18.50;63.43;99819.63;1088420;54;19994;-80
2022/05/11 01:15:15;;;;;;;;;;;;;;;18.57;63.43;99826.94;1088309;54;20178;-80
2022/05/11 01:16:16;;;;;;;;;;;;;;;18.59;63.06;99830.28;1088423;54;19938;-81
2022/05/11 01:17:24;;;;;;;;;;;;;;;18.59;63.30;99824.88;1088424;54;19942;-80
2022/05/11 01:18:25;;;;;;;;;;;;;;;18.62;63.19;99827.16;1088393;54;19966;-81
2022/05/11 01:19:30;;;;;;;;;;;;;;;18.61;63.26;99829.03;1089348;46;19943;-80
2022/05/11 01:20:35;;;;;;;;;;;;;;;18.62;62.84;99822.59;1088064;54;19950;-80
2022/05/11 01:21:44;;;;;;;;;;;;;;;18.62;63.16;99821.72;1087968;54;19949;-82
2022/05/11 01:22:48;;;;;;;;;;;;;;;18.63;63.18;99831.53;1088390;54;19950;-80
2022/05/11 01:23:55;;;;;;;;;;;;;;;18.62;62.80;99825.28;1089002;46;19943;-81
2022/05/11 01:24:59;;;;;;;;;;;;;;;18.63;62.68;99826.97;1088357;54;19943;-83
2022/05/11 01:26:03;;;;;;;;;;;;;;;18.52;63.24;99831.06;1088325;54;19986;-82
2022/05/11 01:27:19;;;;;;;;;;;;;;;18.51;63.29;99831.28;1088422;54;19942;-80
2022/05/11 01:28:23;;;;;;;;;;;;;;;18.48;63.33;99829.81;1088371;54;19950;-82
2022/05/11 01:29:25;;;;;;;;;;;;;;;18.47;63.22;99836.28;1088346;54;19943;-83
2022/05/11 01:30:29;;;;;;;;;;;;;;;18.42;63.66;99830.59;1088377;54;19943;-80
2022/05/11 01:31:30;;;;;;;;;;;;;;;18.47;63.58;99833.56;1088365;54;19950;-82
2022/05/11 01:32:34;;;;;;;;;;;;;;;18.49;63.07;99834.19;1088365;54;19938;-83
2022/05/11 01:33:40;;;;;;;;;;;;;;;18.53;62.95;99835.44;1088351;54;19950;-82
2022/05/11 01:34:41;;;;;;;;;;;;;;;18.59;63.05;99833.00;1088356;54;19944;-81
2022/05/11 01:35:58;;;;;;;;;;;;;;;18.56;62.94;99834.25;1088311;54;19943;-83
2022/05/11 01:36:59;;;;;;;;;;;;;;;18.59;62.97;99830.28;1088246;54;19949;-82
2022/05/11 01:38:20;;;;;;;;;;;;;;;18.63;62.75;99826.97;1089415;46;20015;-83
2022/05/11 01:39:21;;;;;;;;;;;;;;;18.58;62.70;99834.03;1088411;54;19951;-82
2022/05/11 01:40:28;;;;;;;;;;;;;;;18.60;62.48;99835.47;1088306;54;19926;-83
2022/05/11 01:41:30;;;;;;;;;;;;;;;18.58;62.85;99825.91;1088098;54;19999;-80
2022/05/11 01:42:34;;;;;;;;;;;;;;;18.52;62.92;99828.38;1089822;39;20531;-81
2022/05/11 01:43:36;;;;;;;;;;;;;;;18.54;62.57;99834.41;1088348;54;19942;-81
2022/05/11 01:44:40;;;;;;;;;;;;;;;18.52;62.96;99828.38;1088344;54;19942;-83
2022/05/11 01:45:41;;;;;;;;;;;;;;;18.55;62.60;99829.84;1088765;39;20533;-82
2022/05/11 01:46:48;;;;;;;;;;;;;;;18.57;62.43;99821.53;1092646;31;20665;-83
2022/05/11 01:47:49;;;;;;;;;;;;;;;18.55;62.37;99819.84;1088365;54;20603;-80
2022/05/11 01:48:53;;;;;;;;;;;;;;;18.48;62.68;99829.81;1088333;54;20611;-80
2022/05/11 01:49:54;;;;;;;;;;;;;;;18.51;62.50;99826.72;1095404;39;20471;-81
2022/05/11 01:50:58;;;;;;;;;;;;;;;18.53;62.39;99821.91;1090539;39;20503;-82
2022/05/11 01:51:59;;;;;;;;;;;;;;;18.52;62.47;99830.25;1088362;54;20598;-80
2022/05/11 01:53:03;;;;;;;;;;;;;;;18.50;62.41;99827.75;1088367;54;20018;-81
2022/05/11 01:54:04;;;;;;;;;;;;;;;18.46;62.83;99825.66;1088015;54;19942;-80
2022/05/11 01:55:08;;;;;;;;;;;;;;;18.44;62.47;99819.59;1087987;54;19927;-81
2022/05/11 01:56:12;;;;;;;;;;;;;;;18.49;62.40;99825.22;1088389;54;19931;-80
2022/05/11 01:57:16;;;;;;;;;;;;;;;18.52;62.48;99819.44;1088386;54;19927;-79
2022/05/11 01:58:17;;;;;;;;;;;;;;;18.55;62.10;99819.84;1088353;54;20552;-80
2022/05/11 01:59:21;;;;;;;;;;;;;;;18.58;62.31;99824.03;1093435;39;20530;-80
2022/05/11 02:00:22;;;;;;;;;;;;;;;18.60;61.82;99815.72;1094911;39;20893;-82
2022/05/11 02:01:28;;;;;;;;;;;;;;;18.62;61.86;99816.31;1088290;54;19926;-81
2022/05/11 02:02:30;;;;;;;;;;;;;;;18.59;61.97;99820.28;1089317;39;20526;-82
2022/05/11 02:03:33;;;;;;;;;;;;;;;18.60;61.88;99821.94;1088351;54;19943;-82
2022/05/11 02:08:24;;;;;;;;;;;;;;;18.66;61.67;99814.88;1090560;46;20006;-81
2022/05/11 02:09:27;;;;;;;;;;;;;;;18.64;61.99;99814.25;1088366;54;19966;-83
2022/05/11 02:10:28;;;;;;;;;;;;;;;18.61;62.01;99822.81;1088001;54;19956;-82
2022/05/11 02:11:35;;;;;;;;;;;;;;;18.65;61.69;99818.63;1087976;54;19954;-81
2022/05/11 02:12:36;;;;;;;;;;;;;;;18.66;61.80;99814.88;1088682;46;19927;-80
2022/05/11 02:13:40;;;;;;;;;;;;;;;18.67;61.76;99821.97;1088393;54;19942;-81
2022/05/11 02:14:41;;;;;;;;;;;;;;;18.63;61.74;99818.00;1088346;54;19942;-81
2022/05/11 02:15:45;;;;;;;;;;;;;;;18.65;61.99;99808.66;1088290;54;19927;-80
2022/05/11 02:16:46;;;;;;;;;;;;;;;18.66;61.42;99814.88;1089849;46;19927;-83
2022/05/11 02:17:50;;;;;;;;;;;;;;;18.68;61.36;99812.81;1088382;54;19950;-82
2022/05/11 02:18:52;;;;;;;;;;;;;;;18.62;61.85;99813.63;1088366;54;20641;-82
2022/05/11 02:19:55;;;;;;;;;;;;;;;18.65;61.30;99815.94;1088353;54;19948;-80
2022/05/11 02:20:57;;;;;;;;;;;;;;;18.64;60.93;99816.97;1088316;54;19934;-84
2022/05/11 02:22:01;;;;;;;;;;;;;;;18.65;60.94;99815.94;1092892;39;20759;-81
2022/05/11 02:23:02;;;;;;;;;;;;;;;18.65;61.19;99813.22;1088394;54;19950;-81
2022/05/11 02:24:06;;;;;;;;;;;;;;;18.66;61.07;99812.19;1088423;54;19946;-82
2022/05/11 02:25:07;;;;;;;;;;;;;;;18.66;61.33;99814.88;1088297;54;19950;-81
2022/05/11 02:26:12;;;;;;;;;;;;;;;18.67;61.35;99820.09;1088619;46;19926;-83
2022/05/11 02:27:16;;;;;;;;;;;;;;;18.66;61.16;99813.00;1087978;54;19942;-83
2022/05/11 02:28:22;;;;;;;;;;;;;;;18.68;61.00;99813.63;1088080;54;19966;-82
2022/05/11 02:29:23;;;;;;;;;;;;;;;18.67;61.39;99817.38;1088362;54;19979;-82
2022/05/11 02:30:28;;;;;;;;;;;;;;;18.69;61.37;99814.50;1088279;54;19950;-83
2022/05/11 02:31:29;;;;;;;;;;;;;;;18.68;61.47;99816.34;1092215;46;19943;-83
2022/05/11 02:32:33;;;;;;;;;;;;;;;18.65;61.39;99813.22;1088292;54;19927;-81
2022/05/11 02:33:37;;;;;;;;;;;;;;;18.63;61.56;99815.28;1088298;54;19942;-82
2022/05/11 02:35:57;;;;;;;;;;;;;;;18.62;61.42;99813.63;1088258;54;19994;-82
2022/05/11 02:36:58;;;;;;;;;;;;;;;18.62;61.55;99813.63;1088342;54;19943;-82
2022/05/11 02:38:03;;;;;;;;;;;;;;;18.60;61.57;99815.72;1088281;54;20636;-83
2022/05/11 02:39:04;;;;;;;;;;;;;;;18.58;61.55;99812.38;1088306;54;19990;-83
2022/05/11 02:40:08;;;;;;;;;;;;;;;18.57;61.50;99811.50;1088311;54;19934;-82
2022/05/11 02:41:13;;;;;;;;;;;;;;;18.55;61.41;99809.03;1088354;54;19949;-81
2022/05/11 02:42:18;;;;;;;;;;;;;;;18.56;61.62;99804.47;1088332;54;19943;-82
2022/05/11 02:43:22;;;;;;;;;;;;;;;18.55;61.21;99817.16;1092026;46;19974;-82
2022/05/11 02:44:23;;;;;;;;;;;;;;;18.51;61.31;99815.91;1088003;54;19954;-83
2022/05/11 02:45:27;;;;;;;;;;;;;;;18.56;61.34;99812.59;1088187;54;19950;-82
2022/05/11 02:46:28;;;;;;;;;;;;;;;18.55;61.51;99819.03;1088263;54;20610;-82
2022/05/11 02:47:32;;;;;;;;;;;;;;;18.51;61.46;99817.75;1097495;39;20499;-80
2022/05/11 02:48:36;;;;;;;;;;;;;;;18.48;61.66;99819.00;1088331;54;19927;-83
2022/05/11 02:49:38;;;;;;;;;;;;;;;18.48;61.75;99813.59;1088323;54;20004;-82
2022/05/11 02:50:43;;;;;;;;;;;;;;;18.49;61.29;99817.97;1090726;39;20483;-82
2022/05/11 02:51:44;;;;;;;;;;;;;;;18.50;61.58;99816.06;1088267;54;19949;-82
2022/05/11 02:52:47;;;;;;;;;;;;;;;18.47;61.62;99817.31;1088225;54;19946;-81
2022/05/11 02:53:49;;;;;;;;;;;;;;;18.45;61.45;99813.97;1093340;39;20490;-82
2022/05/11 02:54:52;;;;;;;;;;;;;;;18.47;61.51;99811.06;1089750;46;19942;-81
2022/05/11 02:55:54;;;;;;;;;;;;;;;18.49;61.60;99814.41;1088180;54;19942;-81
2022/05/11 02:56:58;;;;;;;;;;;;;;;18.42;61.99;99808.97;1088240;54;20090;-82
2022/05/11 02:58:02;;;;;;;;;;;;;;;18.44;61.90;99816.91;1089730;39;20519;-82
2022/05/11 02:59:06;;;;;;;;;;;;;;;18.40;62.32;99806.47;1088232;54;19931;-81
2022/05/11 03:00:10;;;;;;;;;;;;;;;18.37;62.23;99816.88;1090087;47;19946;-80
2022/05/11 03:01:13;;;;;;;;;;;;;;;18.37;62.54;99811.44;1088250;39;20487;-81
2022/05/11 03:02:14;;;;;;;;;;;;;;;18.37;62.26;99816.88;1088213;54;19998;-81
2022/05/11 03:03:19;;;;;;;;;;;;;;;18.31;63.00;99817.69;1088252;54;19943;-84
2022/05/11 03:04:20;;;;;;;;;;;;;;;18.31;62.69;99820.38;1088244;54;19935;-82
2022/05/11 03:05:24;;;;;;;;;;;;;;;18.30;62.67;99816.81;1088153;54;19942;-81
2022/05/11 03:06:25;;;;;;;;;;;;;;;18.30;63.22;99813.31;1088205;54;19966;-84
2022/05/11 03:07:29;;;;;;;;;;;;;;;18.28;62.91;99823.47;1088237;54;19975;-84
2022/05/11 03:08:30;;;;;;;;;;;;;;;18.21;63.52;99812.63;1088202;54;19931;-83
2022/05/11 03:09:34;;;;;;;;;;;;;;;18.21;63.25;99818.88;1088256;54;19943;-82
2022/05/11 03:10:38;;;;;;;;;;;;;;;18.23;63.00;99816.78;1088165;54;19943;-85
2022/05/11 03:11:39;;;;;;;;;;;;;;;18.23;63.00;99816.78;1088244;54;19946;-83
2022/05/11 03:12:42;;;;;;;;;;;;;;;18.20;63.41;99817.22;1088232;54;19950;-83
2022/05/11 03:13:46;;;;;;;;;;;;;;;18.20;63.10;99814.50;1089798;47;20669;-84
2022/05/11 03:14:50;;;;;;;;;;;;;;;18.22;63.27;99809.75;1088244;54;19949;-84
2022/05/11 03:15:53;;;;;;;;;;;;;;;18.24;63.36;99815.75;1088131;54;19942;-83
2022/05/11 03:16:57;;;;;;;;;;;;;;;18.28;63.39;99807.25;1087848;54;19949;-82
2022/05/11 03:18:01;;;;;;;;;;;;;;;18.29;63.22;99811.63;1087937;54;19973;-82
2022/05/11 03:19:02;;;;;;;;;;;;;;;18.28;63.19;99815.38;1088193;54;19949;-82
2022/05/11 03:20:06;;;;;;;;;;;;;;;18.26;63.62;99812.88;1088146;54;20027;-83
2022/05/11 03:21:07;;;;;;;;;;;;;;;18.24;63.78;99812.22;1088203;54;19950;-82
2022/05/11 03:22:12;;;;;;;;;;;;;;;18.21;63.60;99813.47;1088127;54;19943;-83
2022/05/11 03:23:13;;;;;;;;;;;;;;;18.20;63.66;99816.38;1088219;54;19949;-82
2022/05/11 03:24:17;;;;;;;;;;;;;;;18.20;63.32;99810.94;1088167;54;19949;-82
2022/05/11 03:25:18;;;;;;;;;;;;;;;18.17;63.82;99809.50;1088105;54;19943;-81
2022/05/11 03:26:22;;;;;;;;;;;;;;;18.14;63.79;99811.75;1088179;54;20598;-80
2022/05/11 03:27:23;;;;;;;;;;;;;;;18.12;63.60;99811.97;1088229;54;19962;-80
2022/05/11 03:28:27;;;;;;;;;;;;;;;18.12;63.53;99805.72;1088225;54;19935;-80
2022/05/11 03:29:31;;;;;;;;;;;;;;;18.12;63.60;99809.28;1088190;54;19966;-80
2022/05/11 03:30:35;;;;;;;;;;;;;;;18.07;63.54;99807.16;1088111;54;19957;-82
2022/05/11 03:31:36;;;;;;;;;;;;;;;18.07;63.79;99811.72;1089079;39;20483;-82
2022/05/11 03:35:13;;;;;;;;;;;;;;;18.08;63.23;99803.44;1088152;54;19950;-81
2022/05/11 03:36:17;;;;;;;;;;;;;;;18.06;63.72;99804.63;1088122;54;20668;-81
2022/05/11 03:37:19;;;;;;;;;;;;;;;18.06;63.68;99807.34;1088170;54;19943;-81
2022/05/11 03:38:22;;;;;;;;;;;;;;;18.07;63.35;99801.75;1088089;54;19939;-84
2022/05/11 03:39:23;;;;;;;;;;;;;;;18.06;63.37;99804.63;1088204;54;20003;-83
2022/05/11 03:40:27;;;;;;;;;;;;;;;18.06;63.50;99800.09;1088107;54;19934;-82
2022/05/11 03:41:29;;;;;;;;;;;;;;;18.08;63.19;99797.16;1088539;47;19927;-80
2022/05/11 03:42:33;;;;;;;;;;;;;;;18.05;63.56;99800.25;1088187;54;19996;-81
2022/05/11 03:43:35;;;;;;;;;;;;;;;18.01;63.43;99793.59;1088321;47;19950;-81
2022/05/11 03:44:41;;;;;;;;;;;;;;;17.99;63.29;99801.06;1088193;54;19954;-81
2022/05/11 03:45:42;;;;;;;;;;;;;;;18.00;63.60;99806.25;1088062;54;19994;-80
2022/05/11 03:46:46;;;;;;;;;;;;;;;17.97;63.40;99798.56;1088167;54;19942;-84
2022/05/11 03:47:48;;;;;;;;;;;;;;;17.95;63.60;99802.50;1088161;54;19938;-82
2022/05/11 03:48:51;;;;;;;;;;;;;;;17.93;63.55;99800.81;1088184;54;19934;-82
2022/05/11 03:49:52;;;;;;;;;;;;;;;17.89;63.95;99802.22;1087850;54;20022;-82
2022/05/11 03:50:57;;;;;;;;;;;;;;;17.85;63.73;99802.81;1087750;54;19942;-83
2022/05/11 03:51:58;;;;;;;;;;;;;;;17.85;63.57;99800.13;1088183;54;19946;-84
2022/05/11 03:53:02;;;;;;;;;;;;;;;17.84;63.78;99793.91;1088157;54;19927;-82
2022/05/11 03:54:03;;;;;;;;;;;;;;;17.80;63.81;99799.91;1088137;54;19966;-83
2022/05/11 03:55:08;;;;;;;;;;;;;;;17.77;63.83;99801.09;1088131;54;19950;-84
2022/05/11 03:56:09;;;;;;;;;;;;;;;17.71;64.24;99791.09;1088151;54;19955;-84
2022/05/11 03:57:13;;;;;;;;;;;;;;;17.66;64.62;99801.69;1088189;54;20005;-80
2022/05/11 03:58:14;;;;;;;;;;;;;;;17.69;64.38;99803.97;1090705;47;19939;-82
2022/05/11 03:59:18;;;;;;;;;;;;;;;17.71;64.44;99796.50;1088187;54;19926;-81
2022/05/11 04:00:23;;;;;;;;;;;;;;;17.72;64.13;99801.69;1088077;54;19950;-84
2022/05/11 04:01:27;;;;;;;;;;;;;;;17.74;64.37;99801.53;1088167;54;19973;-83
2022/05/11 04:02:28;;;;;;;;;;;;;;;17.72;64.46;99809.00;1088196;54;20858;-82
2022/05/11 04:03:32;;;;;;;;;;;;;;;17.73;64.22;99805.25;1088163;54;19938;-83
2022/05/11 04:04:33;;;;;;;;;;;;;;;17.73;64.33;99805.25;1088294;54;19942;-82
2022/05/11 04:05:37;;;;;;;;;;;;;;;17.73;63.94;99794.44;1088447;54;19942;-82
2022/05/11 04:06:40;;;;;;;;;;;;;;;17.74;64.06;99810.47;1088112;54;19949;-82
2022/05/11 04:07:42;;;;;;;;;;;;;;;17.75;64.00;99800.50;1088791;46;19965;-81
2022/05/11 04:08:45;;;;;;;;;;;;;;;17.70;64.26;99814.59;1088477;54;19942;-81
2022/05/11 04:09:47;;;;;;;;;;;;;;;17.69;64.21;99810.22;1088559;54;20007;-80
2022/05/11 04:10:50;;;;;;;;;;;;;;;17.69;63.90;99807.53;1088478;54;19979;-83
2022/05/11 04:11:52;;;;;;;;;;;;;;;17.70;63.95;99802.94;1089753;46;19949;-83
2022/05/11 04:12:55;;;;;;;;;;;;;;;17.71;63.65;99807.31;1088585;54;19998;-83
2022/05/11 04:13:57;;;;;;;;;;;;;;;17.67;64.07;99806.03;1088536;54;19943;-84
2022/05/11 04:15:01;;;;;;;;;;;;;;;17.64;63.82;99801.84;1088526;54;19927;-84
2022/05/11 04:16:07;;;;;;;;;;;;;;;17.64;63.70;99803.75;1090932;39;20538;-82
2022/05/11 04:17:09;;;;;;;;;;;;;;;17.64;64.06;99806.44;1088547;54;19950;-82
2022/05/11 04:18:13;;;;;;;;;;;;;;;17.57;63.82;99800.97;1088931;39;20791;-83
2022/05/11 04:19:17;;;;;;;;;;;;;;;17.59;63.62;99807.84;1088475;54;19927;-82
2022/05/11 04:20:19;;;;;;;;;;;;;;;17.59;63.59;99799.75;1089949;46;19934;-84
2022/05/11 04:21:22;;;;;;;;;;;;;;;17.61;63.53;99804.97;1092008;39;20420;-84
2022/05/11 04:22:23;;;;;;;;;;;;;;;17.59;63.84;99802.44;1088466;54;20020;-81
2022/05/11 04:23:27;;;;;;;;;;;;;;;17.61;63.65;99802.28;1088112;54;19943;-83
2022/05/11 04:24:28;;;;;;;;;;;;;;;17.64;63.38;99801.84;1088306;54;19933;-83
2022/05/11 04:25:32;;;;;;;;;;;;;;;17.65;63.69;99803.53;1088465;54;19942;-82
2022/05/11 04:26:35;;;;;;;;;;;;;;;17.64;63.47;99799.16;1088545;54;19943;-84
2022/05/11 04:27:40;;;;;;;;;;;;;;;17.66;63.51;99807.09;1088529;54;19926;-83
2022/05/11 04:28:45;;;;;;;;;;;;;;;17.68;63.44;99802.28;1088522;54;19954;-83
2022/05/11 04:29:46;;;;;;;;;;;;;;;17.68;63.68;99813.97;1088886;46;19923;-83
2022/05/11 04:30:50;;;;;;;;;;;;;;;17.70;63.38;99803.78;1088417;54;19943;-83
2022/05/11 04:31:59;;;;;;;;;;;;;;;17.67;63.53;99806.03;1088494;54;19949;-84
2022/05/11 04:33:00;;;;;;;;;;;;;;;17.72;63.48;99804.41;1088539;54;19934;-84
2022/05/11 04:34:04;;;;;;;;;;;;;;;17.73;64.11;99803.38;1094585;39;20479;-83
2022/05/11 04:35:07;;;;;;;;;;;;;;;17.75;63.84;99809.44;1088489;54;19947;-83
2022/05/11 04:36:11;;;;;;;;;;;;;;;17.72;64.50;99806.28;1088473;54;19950;-84
2022/05/11 04:37:12;;;;;;;;;;;;;;;17.72;64.27;99803.59;1088515;54;20176;-83
2022/05/11 04:38:16;;;;;;;;;;;;;;;17.74;64.46;99796.13;1088432;54;19943;-82
2022/05/11 04:39:17;;;;;;;;;;;;;;;17.70;65.08;99806.50;1088364;54;19998;-81
2022/05/11 04:40:21;;;;;;;;;;;;;;;17.71;64.76;99801.91;1087969;54;19935;-80
2022/05/11 04:41:22;;;;;;;;;;;;;;;17.68;65.32;99805.84;1088380;54;19942;-83
2022/05/11 04:42:26;;;;;;;;;;;;;;;17.64;65.18;99812.66;1088367;54;19942;-84
2022/05/11 04:43:28;;;;;;;;;;;;;;;17.63;65.82;99805.59;1089666;31;20660;-81
2022/05/11 04:51:44;;;;;;;;;;;;;;;17.53;65.89;99805.94;1088655;54;19931;-85
2022/05/11 04:52:48;;;;;;;;;;;;;;;17.54;65.46;99813.03;1088622;54;19951;-87
2022/05/11 04:53:52;;;;;;;;;;;;;;;17.54;65.52;99802.22;1088595;54;19927;-86
2022/05/11 04:54:53;;;;;;;;;;;;;;;17.55;65.16;99814.69;1091622;39;20507;-82
2022/05/11 05:15:10;;;;;;;;;;;;;;;17.95;64.28;99813.31;1088328;54;19967;-84
2022/05/11 05:16:17;;;;;;;;;;;;;;;17.97;63.87;99811.25;1090057;46;19935;-82
2022/05/11 05:17:18;;;;;;;;;;;;;;;17.99;64.14;99814.59;1088396;54;19939;-81
2022/05/11 05:18:23;;;;;;;;;;;;;;;17.98;63.70;99816.47;1088768;46;20002;-83
2022/05/11 05:19:24;;;;;;;;;;;;;;;18.01;64.01;99809.81;1088355;54;19966;-86
2022/05/11 05:20:28;;;;;;;;;;;;;;;18.03;63.64;99818.56;1088227;54;19942;-84
2022/05/11 05:21:31;;;;;;;;;;;;;;;18.06;63.98;99816.31;1088316;54;20011;-86
2022/05/11 05:22:35;;;;;;;;;;;;;;;18.09;63.91;99820.47;1089449;46;19946;-84
2022/05/11 05:23:39;;;;;;;;;;;;;;;18.12;63.73;99817.38;1088396;54;19942;-87
2022/05/11 05:24:42;;;;;;;;;;;;;;;18.13;63.56;99818.19;1088322;54;19950;-84
2022/05/11 05:25:46;;;;;;;;;;;;;;;18.09;63.93;99820.47;1088258;54;19945;-85
2022/05/11 05:26:49;;;;;;;;;;;;;;;18.12;63.80;99820.09;1088306;54;19942;-84
2022/05/11 05:31:04;;;;;;;;;;;;;;;18.17;63.68;99814.06;1088352;54;19950;-86
2022/05/11 05:31:52;;;;;;;;;;;;;;;18.28;63.77;99828.91;1088182;54;19951;-83
2022/05/11 05:32:56;;;;;;;;;;;;;;;18.24;63.30;99817.66;1088321;54;19943;-82
2022/05/11 05:34:00;;;;;;;;;;;;;;;18.28;63.42;99818.91;1088325;54;19943;-85
2022/05/11 05:38:31;;;;;;;;;;;;;;;18.41;61.75;99818.16;1088100;54;19943;-82
2022/05/11 05:39:36;;;;;;;;;;;;;;;18.44;61.31;99817.72;1088363;54;19947;-83
2022/05/11 05:40:37;;;;;;;;;;;;;;;18.49;60.77;99817.13;1088293;54;19949;-84
2022/05/11 05:41:41;;;;;;;;;;;;;;;18.47;60.25;99822.75;1101696;39;20612;-87
2022/05/11 05:42:43;;;;;;;;;;;;;;;18.44;60.30;99811.50;1088521;54;19939;-85
2022/05/11 05:43:47;;;;;;;;;;;;;;;18.55;60.68;99819.03;1091452;39;20533;-85
2022/05/11 05:44:51;;;;;;;;;;;;;;;18.58;59.68;99809.66;1088452;54;19943;-83
2022/05/11 05:45:56;;;;;;;;;;;;;;;18.53;59.63;99811.09;1088182;54;19954;-83
2022/05/11 05:47:04;;;;;;;;;;;;;;;18.62;60.01;99817.16;1088120;54;19939;-83
2022/05/11 05:48:06;;;;;;;;;;;;;;;18.67;59.46;99811.16;1088301;54;19949;-82
2022/05/11 05:49:10;;;;;;;;;;;;;;;18.71;59.47;99813.25;1088391;54;19943;-83
2022/05/11 05:50:11;;;;;;;;;;;;;;;18.78;58.98;99807.00;1088401;54;19942;-80
2022/05/11 05:51:16;;;;;;;;;;;;;;;18.82;59.26;99809.09;1088589;46;20018;-84
2022/05/11 05:52:19;;;;;;;;;;;;;;;18.88;58.88;99818.28;1088367;54;19994;-82
2022/05/11 05:53:28;;;;;;;;;;;;;;;18.83;58.55;99816.19;1088358;54;19942;-84
2022/05/11 05:54:30;;;;;;;;;;;;;;;18.80;58.76;99816.56;1088317;54;19927;-86
2022/05/11 05:55:34;;;;;;;;;;;;;;;18.90;58.84;99818.06;1088281;54;19954;-80
2022/05/11 05:56:36;;;;;;;;;;;;;;;18.86;58.47;99818.50;1089778;39;20533;-83
2022/05/11 05:57:39;;;;;;;;;;;;;;;18.87;58.45;99816.59;1088359;54;19996;-85
2022/05/11 05:58:42;;;;;;;;;;;;;;;18.91;58.40;99815.16;1088119;54;19946;-84
2022/05/11 05:59:47;;;;;;;;;;;;;;;18.84;58.40;99817.84;1088278;54;19949;-82
2022/05/11 06:00:50;;;;;;;;;;;;;;;18.95;58.42;99823.75;1088241;54;19957;-82
2022/05/11 06:01:55;;;;;;;;;;;;;;;19.05;57.91;99816.06;1088239;54;19942;-80
2022/05/11 06:02:56;;;;;;;;;;;;;;;19.13;58.06;99821.28;1087903;54;19942;-83
2022/05/11 06:04:00;;;;;;;;;;;;;;;19.05;57.99;99818.75;1089822;39;20887;-85
2022/05/11 06:05:02;;;;;;;;;;;;;;;19.09;57.91;99820.00;1087838;54;19942;-85
2022/05/11 06:06:07;;;;;;;;;;;;;;;19.15;57.39;99829.19;1090272;39;20617;-83
2022/05/11 06:07:08;;;;;;;;;;;;;;;19.22;57.58;99818.34;1087852;54;19944;-87
2022/05/11 06:08:15;;;;;;;;;;;;;;;19.30;57.43;99823.56;1087893;54;19943;-85
2022/05/11 06:09:18;;;;;;;;;;;;;;;19.19;57.42;99816.91;1087889;54;20060;-84
2022/05/11 06:10:20;;;;;;;;;;;;;;;19.31;57.21;99820.69;1088155;54;19930;-85
2022/05/11 06:11:23;;;;;;;;;;;;;;;19.38;57.33;99811.69;1088338;54;19969;-84
2022/05/11 06:12:26;;;;;;;;;;;;;;;19.37;56.76;99810.84;1088306;54;19943;-83